createdAt,value
2022-11-03T00:05:24.659Z,99844.76
2022-11-03T00:10:32.216Z,99842.73
2022-11-03T00:15:39.621Z,99844.81
2022-11-03T00:20:47.134Z,99847.91
2022-11-03T00:25:54.872Z,99850.76
2022-11-03T00:31:03.626Z,99861.64
2022-11-03T00:36:13.618Z,99861.30
2022-11-03T00:41:22.790Z,99853.92
2022-11-03T00:46:30.736Z,99852.08
2022-11-03T00:51:37.818Z,99851.84
2022-11-03T00:56:44.499Z,99850.10
2022-11-03T01:01:51.966Z,99854.56
2022-11-03T01:07:01.351Z,99856.88
2022-11-03T01:12:11.720Z,99858.64
2022-11-03T01:17:22.129Z,99864.48
2022-11-03T01:22:29.472Z,99863.95
2022-11-03T01:27:37.848Z,99864.94
2022-11-03T01:32:45.035Z,99868.23
2022-11-03T01:37:52.794Z,99866.05
2022-11-03T01:43:20.685Z,99872.58
2022-11-03T01:48:29.433Z,99873.83
2022-11-03T01:53:39.118Z,99868.04
2022-11-03T01:58:51.761Z,99864.59
2022-11-03T02:04:13.011Z,99857.59
2022-11-03T02:09:21.347Z,99857.84
2022-11-03T02:14:29.161Z,99860.52
2022-11-03T02:19:40.401Z,99856.16
2022-11-03T02:24:54.187Z,99859.73
2022-11-03T02:30:01.719Z,99864.08
2022-11-03T02:35:21.890Z,99864.41
2022-11-03T02:40:34.294Z,99866.86
2022-11-03T02:45:43.271Z,99868.38
2022-11-03T02:50:51.269Z,99870.20
2022-11-03T02:56:03.744Z,99871.52
2022-11-03T03:01:16.316Z,99872.78
2022-11-03T03:06:30.067Z,99872.84
2022-11-03T03:11:40.853Z,99872.61
2022-11-03T03:16:55.536Z,99875.73
2022-11-03T03:22:26.312Z,99880.20
2022-11-03T03:27:35.936Z,99875.23
2022-11-03T03:32:48.742Z,99875.77
2022-11-03T03:38:00.881Z,99878.41
2022-11-03T03:43:11.522Z,99885.15
2022-11-03T03:48:19.016Z,99884.10
2022-11-03T03:53:30.941Z,99877.77
2022-11-03T03:58:37.988Z,99876.05
2022-11-03T04:03:45.118Z,99877.84
2022-11-03T04:08:51.035Z,99869.02
2022-11-03T04:14:16.345Z,99874.77
2022-11-03T04:19:41.817Z,99874.17
2022-11-03T04:24:51.047Z,99871.27
2022-11-03T04:30:01.456Z,99874.42
2022-11-03T04:35:18.761Z,99868.84
2022-11-03T04:40:26.243Z,99868.71
2022-11-03T04:45:34.989Z,99862.34
2022-11-03T04:50:46.791Z,99858.52
2022-11-03T04:55:55.647Z,99855.27
2022-11-03T05:01:05.175Z,99857.73
2022-11-03T05:06:19.640Z,99859.39
2022-11-03T05:11:33.570Z,99861.91
2022-11-03T05:16:41.130Z,99864.23
2022-11-03T05:21:51.412Z,99867.50
2022-11-03T05:27:01.357Z,99866.01
2022-11-03T05:32:15.830Z,99867.95
2022-11-03T05:37:28.526Z,99862.61
2022-11-03T05:42:41.802Z,99861.30
2022-11-03T05:47:49.694Z,99858.23
2022-11-03T05:53:00.607Z,99856.09
2022-11-03T05:58:23.301Z,99862.60
2022-11-03T06:03:33.182Z,99860.34
2022-11-03T06:08:43.215Z,99863.06
2022-11-03T06:13:53.874Z,99858.31
2022-11-03T06:19:02.994Z,99856.45
2022-11-03T06:24:15.272Z,99859.66
2022-11-03T06:29:23.998Z,99868.86
2022-11-03T06:34:43.130Z,99876.56
2022-11-03T06:39:51.276Z,99874.09
2022-11-03T06:44:59.106Z,99872.85
2022-11-03T06:50:24.028Z,99878.43
2022-11-03T06:55:32.582Z,99882.30
2022-11-03T07:00:45.871Z,99886.77
2022-11-03T07:06:02.923Z,99888.06
2022-11-03T07:11:17.302Z,99883.39
2022-11-03T07:16:29.986Z,99882.36
2022-11-03T07:21:42.494Z,99881.28
2022-11-03T07:26:51.505Z,99872.80
2022-11-03T07:32:00.934Z,99868.27
2022-11-03T07:42:23.041Z,99858.80
2022-11-03T07:47:31.073Z,99848.35
2022-11-03T07:52:39.289Z,99839.55
2022-11-03T07:57:48.192Z,99831.16
2022-11-03T08:03:00.685Z,99826.59
2022-11-03T08:08:08.225Z,99819.38
2022-11-03T08:13:15.836Z,99807.81
2022-11-03T08:18:23.258Z,99798.35
2022-11-03T08:27:36.744Z,99784.13
2022-11-03T08:32:43.895Z,99778.02
2022-11-03T08:37:49.480Z,99783.89
2022-11-03T08:42:57.141Z,99778.13
2022-11-03T08:48:04.470Z,99773.59
2022-11-03T08:53:12.013Z,99768.05
2022-11-03T08:58:19.436Z,99763.92
2022-11-03T09:03:27.377Z,99763.25
2022-11-03T09:14:01.887Z,99756.37
2022-11-03T09:19:09.363Z,99755.83
2022-11-03T09:24:17.630Z,99751.53
2022-11-03T09:29:32.871Z,99744.33
2022-11-03T09:34:47.793Z,99738.73
2022-11-03T09:39:55.264Z,99736.77
2022-11-03T09:45:03.159Z,99727.59
2022-11-03T09:50:15.940Z,99720.00
2022-11-03T09:55:25.957Z,99711.53
2022-11-03T10:00:33.521Z,99705.38
2022-11-03T10:05:43.682Z,99700.38
2022-11-03T10:10:51.306Z,99693.56
2022-11-03T10:15:58.944Z,99686.29
2022-11-03T10:21:08.123Z,99678.52
2022-11-03T10:26:19.565Z,99669.77
2022-11-03T10:31:35.616Z,99666.09
2022-11-03T10:36:48.057Z,99659.04
2022-11-03T10:42:02.048Z,99657.48
2022-11-03T10:47:23.488Z,99651.23
2022-11-03T10:52:31.579Z,99648.23
2022-11-03T10:57:38.818Z,99643.84
2022-11-03T11:02:47.847Z,99633.77
2022-11-03T11:07:57.057Z,99622.92
2022-11-03T11:13:27.746Z,99614.72
2022-11-03T11:19:12.244Z,99599.31
2022-11-03T11:25:00.187Z,99588.92
2022-11-03T11:30:30.186Z,99584.16
2022-11-03T11:36:21.782Z,99577.14
2022-11-03T11:42:05.231Z,99563.19
2022-11-03T11:47:36.182Z,99552.25
2022-11-03T11:52:46.489Z,99542.80
2022-11-03T11:57:55.195Z,99538.89
2022-11-03T12:03:07.812Z,99519.38
2022-11-03T12:08:28.821Z,99505.02
2022-11-03T12:13:47.140Z,99490.77
2022-11-03T12:18:55.604Z,99487.50
2022-11-03T12:24:02.900Z,99481.29
2022-11-03T12:29:10.610Z,99468.51
2022-11-03T12:34:19.147Z,99464.55
2022-11-03T12:39:27.367Z,99457.30
2022-11-03T12:44:36.776Z,99439.38
2022-11-03T12:49:46.454Z,99434.89
2022-11-03T12:54:54.503Z,99425.18
2022-11-03T13:00:01.896Z,99420.52
2022-11-03T13:05:15.923Z,99418.37
2022-11-03T13:10:23.800Z,99416.05
2022-11-03T13:15:31.048Z,99411.92
2022-11-03T13:20:38.743Z,99405.84
2022-11-03T13:25:46.774Z,99401.05
2022-11-03T13:30:54.230Z,99391.00
2022-11-03T13:36:02.101Z,99383.32
2022-11-03T13:41:09.874Z,99381.44
2022-11-03T13:46:17.241Z,99375.88
2022-11-03T13:51:25.121Z,99372.60
2022-11-03T14:07:29.370Z,99351.48
2022-11-03T14:12:37.328Z,99346.31
2022-11-03T14:17:44.617Z,99338.46
2022-11-03T14:22:52.043Z,99330.64
2022-11-03T14:27:59.499Z,99321.84
2022-11-03T14:33:07.099Z,99315.93
2022-11-03T14:38:15.286Z,99318.66
2022-11-03T14:43:23.149Z,99316.73
2022-11-03T14:48:30.534Z,99310.88
2022-11-03T14:53:38.062Z,99307.79
2022-11-03T14:58:45.780Z,99301.14
2022-11-03T15:03:53.713Z,99293.75
2022-11-03T15:09:00.948Z,99293.94
2022-11-03T15:14:08.917Z,99289.59
2022-11-03T15:19:16.313Z,99286.67
2022-11-03T15:29:54.109Z,99280.87
2022-11-03T15:35:01.884Z,99276.98
2022-11-03T15:40:12.640Z,99274.30
2022-11-03T15:45:21.826Z,99268.36
2022-11-03T15:50:29.306Z,99267.29
2022-11-03T15:55:37.439Z,99267.95
2022-11-03T16:00:45.153Z,99266.30
2022-11-03T16:05:54.616Z,99263.53
2022-11-03T16:11:02.821Z,99259.75
2022-11-03T16:16:11.487Z,99252.56
2022-11-03T16:21:19.292Z,99251.45
2022-11-03T16:26:27.585Z,99237.67
2022-11-03T16:31:36.233Z,99218.55
2022-11-03T16:36:44.664Z,99215.35
2022-11-03T16:41:55.255Z,99215.58
2022-11-03T16:47:02.797Z,99209.98
2022-11-03T16:52:11.180Z,99214.84
2022-11-03T16:57:19.251Z,99212.09
2022-11-03T17:02:28.298Z,99207.45
2022-11-03T17:07:35.889Z,99198.75
2022-11-03T17:12:43.360Z,99201.62
2022-11-03T17:17:54.176Z,99194.52
2022-11-03T17:23:01.883Z,99179.92
2022-11-03T17:32:54.529Z,99156.68
2022-11-03T17:38:07.139Z,99152.20
2022-11-03T17:43:22.666Z,99142.80
2022-11-03T17:48:30.180Z,99132.19
2022-11-03T17:53:37.639Z,99136.91
2022-11-03T17:58:47.308Z,99129.06
2022-11-03T18:03:55.562Z,99125.57
2022-11-03T18:09:02.927Z,99124.64
2022-11-03T18:14:10.818Z,99121.07
2022-11-03T18:19:19.562Z,99117.41
2022-11-03T18:24:28.602Z,99112.71
2022-11-03T18:29:36.360Z,99111.27
2022-11-03T18:34:43.780Z,99104.23
2022-11-03T18:39:51.904Z,99100.19
2022-11-03T18:45:02.667Z,99093.27
2022-11-03T18:50:16.877Z,99078.88
2022-11-03T18:55:25.073Z,99068.56
2022-11-03T19:00:33.924Z,99058.17
2022-11-03T19:05:44.406Z,99044.17
2022-11-03T19:10:53.839Z,99034.80
2022-11-03T19:16:03.539Z,99030.13
2022-11-03T19:21:16.630Z,99025.22
2022-11-03T19:26:27.340Z,99012.30
2022-11-03T19:31:39.340Z,99004.09
2022-11-03T19:36:47.795Z,98996.11
2022-11-03T19:42:13.105Z,98992.14
2022-11-03T19:47:23.231Z,98982.56
2022-11-03T19:52:34.056Z,98972.20
2022-11-03T19:57:41.594Z,98965.73
2022-11-03T20:02:49.872Z,98961.55
2022-11-03T20:08:01.279Z,98954.17
2022-11-03T20:13:10.488Z,98953.33
2022-11-03T20:18:18.800Z,98948.37
2022-11-03T20:23:30.114Z,98942.84
2022-11-03T20:28:39.916Z,98931.61
2022-11-03T20:33:48.410Z,98926.79
2022-11-03T20:38:59.756Z,98929.93
2022-11-03T20:44:08.131Z,98925.23
2022-11-03T20:49:16.072Z,98915.30
2022-11-03T20:54:24.286Z,98906.41
2022-11-03T20:59:34.614Z,98904.90
2022-11-03T21:04:45.746Z,98907.95
2022-11-03T21:09:53.764Z,98900.84
2022-11-03T21:15:18.778Z,98894.98
2022-11-03T21:20:26.710Z,98884.55
2022-11-03T21:25:34.106Z,98869.42
2022-11-03T21:30:41.542Z,98869.33
2022-11-03T21:35:50.543Z,98865.06
2022-11-03T21:41:18.192Z,98860.71
2022-11-03T21:46:24.696Z,98860.64
2022-11-03T21:51:31.933Z,98856.48
2022-11-03T21:56:39.525Z,98848.90
2022-11-03T22:01:49.538Z,98838.84
2022-11-03T22:06:59.670Z,98834.05
2022-11-03T22:12:10.851Z,98830.79
2022-11-03T22:17:18.458Z,98812.92
2022-11-03T22:22:44.590Z,98820.95
2022-11-03T22:27:52.581Z,98815.48
2022-11-03T22:33:00.658Z,98807.12
2022-11-03T22:38:10.494Z,98799.95
2022-11-03T22:43:36.239Z,98797.12
2022-11-03T22:48:44.063Z,98785.81
2022-11-03T22:54:09.214Z,98784.84
2022-11-03T22:59:18.622Z,98768.18
2022-11-03T23:04:27.403Z,98762.02
2022-11-03T23:09:37.440Z,98759.94
2022-11-03T23:15:04.640Z,98752.92
2022-11-03T23:20:42.157Z,98745.77
2022-11-03T23:25:49.827Z,98734.38
2022-11-03T23:30:57.260Z,98726.96
2022-11-03T23:36:08.284Z,98708.52
2022-11-03T23:41:17.079Z,98707.27
2022-11-03T23:46:43.932Z,98705.29
2022-11-03T23:51:52.066Z,98696.01
2022-11-03T23:57:17.080Z,98695.90
